sensor_id;sensor_type;location;lat;lon;timestamp;pressure;altitude;pressure_sealevel;temperature;humidity
69911;BME280;63555;49.920;17.868;2022-12-29T00:02:20;98685.25;;;2.92;69.73
69911;BME280;63555;49.920;17.868;2022-12-29T00:07:21;98672.91;;;2.95;70.31
69911;BME280;63555;49.920;17.868;2022-12-29T00:12:21;98655.31;;;3.00;69.66
69911;BME280;63555;49.920;17.868;2022-12-29T00:17:21;98641.72;;;3.12;69.86
69911;BME280;63555;49.920;17.868;2022-12-29T00:22:22;98628.19;;;3.23;69.46
69911;BME280;63555;49.920;17.868;2022-12-29T00:27:41;98625.53;;;3.42;69.36
69911;BME280;63555;49.920;17.868;2022-12-29T00:33:00;98653.69;;;3.53;68.93
69911;BME280;63555;49.920;17.868;2022-12-29T00:38:19;98674.34;;;3.57;68.74
69911;BME280;63555;49.920;17.868;2022-12-29T00:43:39;98673.41;;;3.58;68.10
69911;BME280;63555;49.920;17.868;2022-12-29T00:48:59;98681.38;;;3.55;68.88
69911;BME280;63555;49.920;17.868;2022-12-29T00:54:19;98673.78;;;3.50;69.08
69911;BME280;63555;49.920;17.868;2022-12-29T00:59:19;98667.91;;;3.45;68.28
69911;BME280;63555;49.920;17.868;2022-12-29T01:04:22;98653.19;;;3.44;68.45
69911;BME280;63555;49.920;17.868;2022-12-29T01:09:22;98647.06;;;3.45;68.89
69911;BME280;63555;49.920;17.868;2022-12-29T01:14:42;98667.81;;;3.48;68.48
69911;BME280;63555;49.920;17.868;2022-12-29T01:19:42;98672.78;;;3.53;68.24
69911;BME280;63555;49.920;17.868;2022-12-29T01:24:42;98655.31;;;3.55;68.20
69911;BME280;63555;49.920;17.868;2022-12-29T01:29:43;98645.81;;;3.54;68.36
69911;BME280;63555;49.920;17.868;2022-12-29T01:34:43;98633.63;;;3.55;68.06
69911;BME280;63555;49.920;17.868;2022-12-29T01:39:44;98649.25;;;3.55;67.90
69911;BME280;63555;49.920;17.868;2022-12-29T01:44:54;98658.00;;;3.54;67.41
69911;BME280;63555;49.920;17.868;2022-12-29T01:49:58;98685.13;;;3.49;67.25
69911;BME280;63555;49.920;17.868;2022-12-29T01:55:02;98680.84;;;3.48;67.11
69911;BME280;63555;49.920;17.868;2022-12-29T02:00:09;98690.53;;;3.45;67.66
69911;BME280;63555;49.920;17.868;2022-12-29T02:05:48;98683.16;;;3.36;67.72
69911;BME280;63555;49.920;17.868;2022-12-29T02:10:42;98680.84;;;3.30;68.15
69911;BME280;63555;49.920;17.868;2022-12-29T02:21:54;98624.81;;;3.21;68.04
69911;BME280;63555;49.920;17.868;2022-12-29T02:37:54;98617.34;;;3.13;68.00
69911;BME280;63555;49.920;17.868;2022-12-29T02:48:52;98598.19;;;3.14;68.19
69911;BME280;63555;49.920;17.868;2022-12-29T02:53:56;98597.50;;;3.11;68.43
69911;BME280;63555;49.920;17.868;2022-12-29T02:59:16;98618.56;;;3.06;69.08
69911;BME280;63555;49.920;17.868;2022-12-29T03:04:29;98627.44;;;3.02;68.52
69911;BME280;63555;49.920;17.868;2022-12-29T03:20:20;98658.22;;;2.75;69.98
69911;BME280;63555;49.920;17.868;2022-12-29T03:25:28;98640.28;;;2.69;70.18
69911;BME280;63555;49.920;17.868;2022-12-29T03:30:32;98625.44;;;2.71;70.39
69911;BME280;63555;49.920;17.868;2022-12-29T03:35:36;98632.03;;;2.78;69.39
69911;BME280;63555;49.920;17.868;2022-12-29T03:40:40;98623.25;;;2.81;69.73
69911;BME280;63555;49.920;17.868;2022-12-29T03:45:42;98611.56;;;2.90;70.37
69911;BME280;63555;49.920;17.868;2022-12-29T03:50:42;98600.41;;;3.05;69.50
69911;BME280;63555;49.920;17.868;2022-12-29T03:55:43;98589.22;;;3.03;69.48
69911;BME280;63555;49.920;17.868;2022-12-29T04:00:43;98602.38;;;3.00;69.28
69911;BME280;63555;49.920;17.868;2022-12-29T04:05:43;98619.00;;;2.97;69.29
69911;BME280;63555;49.920;17.868;2022-12-29T04:10:45;98624.63;;;2.88;69.51
69911;BME280;63555;49.920;17.868;2022-12-29T04:15:45;98612.34;;;2.73;69.72
69911;BME280;63555;49.920;17.868;2022-12-29T04:20:45;98609.47;;;2.60;70.04
69911;BME280;63555;49.920;17.868;2022-12-29T04:26:01;98590.19;;;2.64;70.36
69911;BME280;63555;49.920;17.868;2022-12-29T04:31:03;98578.78;;;2.67;70.35
69911;BME280;63555;49.920;17.868;2022-12-29T04:36:04;98598.69;;;2.68;70.37
69911;BME280;63555;49.920;17.868;2022-12-29T04:41:04;98579.41;;;2.72;70.92
69911;BME280;63555;49.920;17.868;2022-12-29T04:46:05;98594.53;;;2.82;70.22
69911;BME280;63555;49.920;17.868;2022-12-29T04:51:05;98589.72;;;2.92;70.51
69911;BME280;63555;49.920;17.868;2022-12-29T04:56:06;98579.63;;;3.03;70.09
69911;BME280;63555;49.920;17.868;2022-12-29T05:01:06;98573.06;;;3.13;70.38
69911;BME280;63555;49.920;17.868;2022-12-29T05:06:07;98581.34;;;3.22;69.66
69911;BME280;63555;49.920;17.868;2022-12-29T05:11:08;98582.66;;;3.30;69.53
69911;BME280;63555;49.920;17.868;2022-12-29T05:16:08;98584.03;;;3.37;69.97
69911;BME280;63555;49.920;17.868;2022-12-29T05:21:08;98592.78;;;3.36;69.52
69911;BME280;63555;49.920;17.868;2022-12-29T05:26:09;98589.56;;;3.31;69.62
69911;BME280;63555;49.920;17.868;2022-12-29T05:31:09;98582.03;;;3.25;70.50
69911;BME280;63555;49.920;17.868;2022-12-29T05:36:09;98570.09;;;3.21;70.12
69911;BME280;63555;49.920;17.868;2022-12-29T05:41:10;98552.31;;;3.29;70.08
69911;BME280;63555;49.920;17.868;2022-12-29T05:46:10;98544.97;;;3.37;69.67
69911;BME280;63555;49.920;17.868;2022-12-29T05:51:11;98527.41;;;3.41;69.44
69911;BME280;63555;49.920;17.868;2022-12-29T05:56:11;98522.88;;;3.44;69.20
69911;BME280;63555;49.920;17.868;2022-12-29T06:01:12;98525.19;;;3.50;69.38
69911;BME280;63555;49.920;17.868;2022-12-29T06:06:12;98536.31;;;3.54;68.88
69911;BME280;63555;49.920;17.868;2022-12-29T06:11:12;98525.66;;;3.59;68.67
69911;BME280;63555;49.920;17.868;2022-12-29T06:16:13;98535.16;;;3.60;69.07
69911;BME280;63555;49.920;17.868;2022-12-29T06:21:13;98529.03;;;3.61;68.53
69911;BME280;63555;49.920;17.868;2022-12-29T06:26:13;98520.44;;;3.59;69.09
69911;BME280;63555;49.920;17.868;2022-12-29T06:31:14;98542.22;;;3.58;68.99
69911;BME280;63555;49.920;17.868;2022-12-29T06:36:14;98560.63;;;3.55;69.64
69911;BME280;63555;49.920;17.868;2022-12-29T06:41:14;98552.19;;;3.49;69.58
69911;BME280;63555;49.920;17.868;2022-12-29T06:46:15;98543.44;;;3.50;69.77
69911;BME280;63555;49.920;17.868;2022-12-29T06:51:15;98544.28;;;3.51;69.94
69911;BME280;63555;49.920;17.868;2022-12-29T06:56:15;98562.38;;;3.54;69.40
69911;BME280;63555;49.920;17.868;2022-12-29T07:01:16;98570.28;;;3.53;70.14
69911;BME280;63555;49.920;17.868;2022-12-29T07:06:16;98571.19;;;3.51;70.28
69911;BME280;63555;49.920;17.868;2022-12-29T07:11:16;98568.38;;;3.56;70.26
69911;BME280;63555;49.920;17.868;2022-12-29T07:16:17;98581.94;;;3.63;70.12
69911;BME280;63555;49.920;17.868;2022-12-29T07:21:18;98540.81;;;3.68;70.14
69911;BME280;63555;49.920;17.868;2022-12-29T07:26:18;98543.34;;;3.69;70.12
69911;BME280;63555;49.920;17.868;2022-12-29T07:31:21;98529.47;;;3.69;69.96
69911;BME280;63555;49.920;17.868;2022-12-29T07:36:22;98530.22;;;3.71;70.56
69911;BME280;63555;49.920;17.868;2022-12-29T07:41:22;98530.00;;;3.75;70.36
69911;BME280;63555;49.920;17.868;2022-12-29T07:46:22;98533.22;;;3.80;70.74
69911;BME280;63555;49.920;17.868;2022-12-29T07:51:23;98537.19;;;3.88;70.67
69911;BME280;63555;49.920;17.868;2022-12-29T07:56:23;98549.91;;;3.94;70.64
69911;BME280;63555;49.920;17.868;2022-12-29T08:01:23;98542.00;;;3.95;70.52
69911;BME280;63555;49.920;17.868;2022-12-29T08:06:24;98549.50;;;4.01;70.59
69911;BME280;63555;49.920;17.868;2022-12-29T08:11:24;98555.47;;;4.03;70.48
69911;BME280;63555;49.920;17.868;2022-12-29T08:16:24;98557.16;;;4.04;70.32
69911;BME280;63555;49.920;17.868;2022-12-29T08:21:27;98542.97;;;4.10;70.27
69911;BME280;63555;49.920;17.868;2022-12-29T08:26:27;98534.63;;;4.19;69.78
69911;BME280;63555;49.920;17.868;2022-12-29T08:31:28;98509.31;;;4.21;69.90
69911;BME280;63555;49.920;17.868;2022-12-29T08:36:29;98487.09;;;4.30;69.55
69911;BME280;63555;49.920;17.868;2022-12-29T08:41:30;98502.09;;;4.42;69.61
69911;BME280;63555;49.920;17.868;2022-12-29T08:46:31;98479.84;;;4.66;69.07
69911;BME280;63555;49.920;17.868;2022-12-29T08:51:32;98457.66;;;4.89;68.38
69911;BME280;63555;49.920;17.868;2022-12-29T08:56:32;98467.13;;;5.06;67.99
69911;BME280;63555;49.920;17.868;2022-12-29T09:01:32;98495.16;;;5.18;67.25
69911;BME280;63555;49.920;17.868;2022-12-29T09:06:35;98518.84;;;5.31;67.41
69911;BME280;63555;49.920;17.868;2022-12-29T09:11:35;98519.28;;;5.53;67.25
69911;BME280;63555;49.920;17.868;2022-12-29T09:16:36;98508.03;;;5.95;67.47
69911;BME280;63555;49.920;17.868;2022-12-29T09:21:37;98504.06;;;6.86;66.52
69911;BME280;63555;49.920;17.868;2022-12-29T09:26:37;98494.59;;;8.39;62.96
69911;BME280;63555;49.920;17.868;2022-12-29T09:31:39;98500.81;;;9.57;60.24
69911;BME280;63555;49.920;17.868;2022-12-29T09:36:39;98506.06;;;10.37;59.40
69911;BME280;63555;49.920;17.868;2022-12-29T09:41:48;98523.03;;;11.53;58.05
69911;BME280;63555;49.920;17.868;2022-12-29T09:46:51;98518.50;;;13.07;56.07
69911;BME280;63555;49.920;17.868;2022-12-29T09:51:57;98509.09;;;14.19;52.90
69911;BME280;63555;49.920;17.868;2022-12-29T09:57:00;98499.09;;;14.78;51.83
69911;BME280;63555;49.920;17.868;2022-12-29T10:02:23;98498.28;;;15.13;50.14
69911;BME280;63555;49.920;17.868;2022-12-29T10:07:36;98499.91;;;15.23;49.29
69911;BME280;63555;49.920;17.868;2022-12-29T10:12:48;98506.72;;;15.44;48.23
69911;BME280;63555;49.920;17.868;2022-12-29T10:18:08;98496.88;;;15.72;47.14
69911;BME280;63555;49.920;17.868;2022-12-29T10:28:38;98474.94;;;16.30;45.39
69911;BME280;63555;49.920;17.868;2022-12-29T10:33:41;98481.59;;;16.00;45.54
69911;BME280;63555;49.920;17.868;2022-12-29T10:38:48;98489.81;;;15.27;46.15
69911;BME280;63555;49.920;17.868;2022-12-29T10:43:53;98484.75;;;14.33;47.04
69911;BME280;63555;49.920;17.868;2022-12-29T10:48:54;98469.63;;;13.21;48.42
69911;BME280;63555;49.920;17.868;2022-12-29T10:54:03;98476.47;;;12.55;49.60
69911;BME280;63555;49.920;17.868;2022-12-29T10:59:16;98479.66;;;12.58;50.13
69911;BME280;63555;49.920;17.868;2022-12-29T11:04:35;98476.56;;;13.03;49.73
69911;BME280;63555;49.920;17.868;2022-12-29T11:09:41;98461.41;;;13.34;49.22
69911;BME280;63555;49.920;17.868;2022-12-29T11:14:41;98459.03;;;13.41;48.93
69911;BME280;63555;49.920;17.868;2022-12-29T11:19:42;98465.16;;;13.41;48.55
69911;BME280;63555;49.920;17.868;2022-12-29T11:24:46;98462.34;;;13.14;48.79
69911;BME280;63555;49.920;17.868;2022-12-29T11:29:47;98468.22;;;13.46;48.50
69911;BME280;63555;49.920;17.868;2022-12-29T11:34:49;98463.81;;;13.84;48.02
69911;BME280;63555;49.920;17.868;2022-12-29T11:40:00;98477.00;;;13.47;47.58
69911;BME280;63555;49.920;17.868;2022-12-29T11:50:25;98480.44;;;12.99;46.99
69911;BME280;63555;49.920;17.868;2022-12-29T11:55:27;98477.50;;;12.02;48.54
69911;BME280;63555;49.920;17.868;2022-12-29T12:00:32;98468.50;;;11.42;49.59
69911;BME280;63555;49.920;17.868;2022-12-29T12:05:43;98454.97;;;11.36;50.55
69911;BME280;63555;49.920;17.868;2022-12-29T12:16:18;98440.09;;;11.35;50.10
69911;BME280;63555;49.920;17.868;2022-12-29T12:26:37;98428.25;;;10.65;52.27
69911;BME280;63555;49.920;17.868;2022-12-29T12:32:11;98415.81;;;10.56;52.80
69911;BME280;63555;49.920;17.868;2022-12-29T12:59:17;98375.38;;;10.12;55.14
69911;BME280;63555;49.920;17.868;2022-12-29T13:04:32;98370.50;;;9.97;55.09
69911;BME280;63555;49.920;17.868;2022-12-29T13:10:30;98388.81;;;9.87;56.22
69911;BME280;63555;49.920;17.868;2022-12-29T13:15:49;98393.25;;;9.64;56.48
69911;BME280;63555;49.920;17.868;2022-12-29T13:20:54;98401.81;;;9.44;56.95
69911;BME280;63555;49.920;17.868;2022-12-29T13:36:45;98432.09;;;9.03;57.69
69911;BME280;63555;49.920;17.868;2022-12-29T13:41:51;98430.72;;;8.86;58.04
69911;BME280;63555;49.920;17.868;2022-12-29T13:46:52;98420.63;;;8.69;58.02
69911;BME280;63555;49.920;17.868;2022-12-29T13:51:56;98430.06;;;8.35;58.44
69911;BME280;63555;49.920;17.868;2022-12-29T14:07:38;98419.34;;;7.63;60.13
69911;BME280;63555;49.920;17.868;2022-12-29T14:12:42;98418.72;;;7.47;60.14
69911;BME280;63555;49.920;17.868;2022-12-29T14:17:43;98422.50;;;7.30;61.03
69911;BME280;63555;49.920;17.868;2022-12-29T14:28:39;98398.19;;;6.89;61.77
69911;BME280;63555;49.920;17.868;2022-12-29T14:33:41;98402.22;;;6.67;62.18
69911;BME280;63555;49.920;17.868;2022-12-29T14:39:00;98405.19;;;6.49;62.91
69911;BME280;63555;49.920;17.868;2022-12-29T14:44:16;98387.84;;;6.33;62.95
69911;BME280;63555;49.920;17.868;2022-12-29T14:49:20;98398.19;;;6.22;63.50
69911;BME280;63555;49.920;17.868;2022-12-29T14:54:42;98394.00;;;6.05;63.73
69911;BME280;63555;49.920;17.868;2022-12-29T14:59:44;98400.84;;;5.94;64.66
69911;BME280;63555;49.920;17.868;2022-12-29T15:04:46;98386.41;;;5.87;65.06
69911;BME280;63555;49.920;17.868;2022-12-29T15:10:08;98392.69;;;5.84;65.26
69911;BME280;63555;49.920;17.868;2022-12-29T15:15:22;98401.00;;;5.76;65.87
69911;BME280;63555;49.920;17.868;2022-12-29T15:20:29;98418.03;;;5.69;66.19
69911;BME280;63555;49.920;17.868;2022-12-29T15:25:30;98426.16;;;5.65;66.46
69911;BME280;63555;49.920;17.868;2022-12-29T15:30:31;98415.13;;;5.60;66.93
69911;BME280;63555;49.920;17.868;2022-12-29T15:35:36;98415.31;;;5.57;66.99
69911;BME280;63555;49.920;17.868;2022-12-29T15:40:37;98414.00;;;5.50;67.08
69911;BME280;63555;49.920;17.868;2022-12-29T15:45:38;98426.69;;;5.41;67.49
69911;BME280;63555;49.920;17.868;2022-12-29T15:50:40;98434.81;;;5.37;67.55
69911;BME280;63555;49.920;17.868;2022-12-29T15:55:41;98437.53;;;5.35;68.20
69911;BME280;63555;49.920;17.868;2022-12-29T16:00:47;98432.47;;;5.32;68.28
69911;BME280;63555;49.920;17.868;2022-12-29T16:05:54;98440.50;;;5.29;68.10
69911;BME280;63555;49.920;17.868;2022-12-29T16:10:55;98440.88;;;5.23;68.40
69911;BME280;63555;49.920;17.868;2022-12-29T16:16:00;98434.28;;;5.16;68.26
69911;BME280;63555;49.920;17.868;2022-12-29T16:21:03;98428.50;;;5.11;68.50
69911;BME280;63555;49.920;17.868;2022-12-29T16:26:16;98434.84;;;5.07;68.69
69911;BME280;63555;49.920;17.868;2022-12-29T16:31:25;98438.19;;;5.09;68.69
69911;BME280;63555;49.920;17.868;2022-12-29T16:36:34;98435.84;;;5.04;68.80
69911;BME280;63555;49.920;17.868;2022-12-29T16:41:39;98442.50;;;5.10;69.35
69911;BME280;63555;49.920;17.868;2022-12-29T16:46:56;98442.97;;;5.17;69.12
69911;BME280;63555;49.920;17.868;2022-12-29T16:51:58;98437.91;;;5.29;68.98
69911;BME280;63555;49.920;17.868;2022-12-29T16:57:01;98436.13;;;5.44;68.97
69911;BME280;63555;49.920;17.868;2022-12-29T17:02:07;98425.03;;;5.55;68.62
69911;BME280;63555;49.920;17.868;2022-12-29T17:07:16;98423.81;;;5.60;68.67
69911;BME280;63555;49.920;17.868;2022-12-29T17:12:22;98405.50;;;5.60;68.38
69911;BME280;63555;49.920;17.868;2022-12-29T17:22:33;98419.25;;;5.50;68.26
69911;BME280;63555;49.920;17.868;2022-12-29T17:27:37;98433.63;;;5.42;68.44
69911;BME280;63555;49.920;17.868;2022-12-29T17:32:42;98435.84;;;5.34;68.75
69911;BME280;63555;49.920;17.868;2022-12-29T17:37:43;98441.16;;;5.33;69.13
69911;BME280;63555;49.920;17.868;2022-12-29T17:42:46;98449.19;;;5.30;68.82
69911;BME280;63555;49.920;17.868;2022-12-29T17:47:47;98456.47;;;5.25;69.58
69911;BME280;63555;49.920;17.868;2022-12-29T17:52:54;98461.34;;;5.15;69.32
69911;BME280;63555;49.920;17.868;2022-12-29T17:57:55;98460.13;;;5.06;69.66
69911;BME280;63555;49.920;17.868;2022-12-29T18:02:58;98465.88;;;4.97;69.64
69911;BME280;63555;49.920;17.868;2022-12-29T18:07:59;98481.25;;;4.88;69.90
69911;BME280;63555;49.920;17.868;2022-12-29T18:13:00;98479.06;;;4.80;70.15
69911;BME280;63555;49.920;17.868;2022-12-29T18:18:11;98484.47;;;4.77;70.25
69911;BME280;63555;49.920;17.868;2022-12-29T18:23:25;98501.25;;;4.73;70.36
69911;BME280;63555;49.920;17.868;2022-12-29T18:28:26;98491.91;;;4.69;70.83
69911;BME280;63555;49.920;17.868;2022-12-29T18:33:28;98500.56;;;4.69;70.44
69911;BME280;63555;49.920;17.868;2022-12-29T18:38:28;98498.13;;;4.66;70.70
69911;BME280;63555;49.920;17.868;2022-12-29T18:43:29;98491.91;;;4.69;70.70
69911;BME280;63555;49.920;17.868;2022-12-29T18:48:29;98495.53;;;4.66;70.59
69911;BME280;63555;49.920;17.868;2022-12-29T18:53:30;98486.84;;;4.66;70.52
69911;BME280;63555;49.920;17.868;2022-12-29T18:58:31;98488.88;;;4.61;70.63
69911;BME280;63555;49.920;17.868;2022-12-29T19:03:32;98496.22;;;4.54;70.53
69911;BME280;63555;49.920;17.868;2022-12-29T19:08:32;98497.13;;;4.53;71.07
69911;BME280;63555;49.920;17.868;2022-12-29T19:13:33;98498.16;;;4.51;70.99
69911;BME280;63555;49.920;17.868;2022-12-29T19:18:33;98498.47;;;4.44;71.04
69911;BME280;63555;49.920;17.868;2022-12-29T19:23:33;98489.97;;;4.41;70.54
69911;BME280;63555;49.920;17.868;2022-12-29T19:28:34;98504.88;;;4.39;71.21
69911;BME280;63555;49.920;17.868;2022-12-29T19:33:34;98493.91;;;4.32;71.15
69911;BME280;63555;49.920;17.868;2022-12-29T19:38:34;98484.38;;;4.31;71.39
69911;BME280;63555;49.920;17.868;2022-12-29T19:43:35;98469.66;;;4.30;71.56
69911;BME280;63555;49.920;17.868;2022-12-29T19:48:35;98454.16;;;4.27;71.23
69911;BME280;63555;49.920;17.868;2022-12-29T19:53:36;98437.06;;;4.22;71.22
69911;BME280;63555;49.920;17.868;2022-12-29T19:58:37;98437.41;;;4.15;71.32
69911;BME280;63555;49.920;17.868;2022-12-29T20:03:38;98442.03;;;4.10;71.71
69911;BME280;63555;49.920;17.868;2022-12-29T20:08:39;98436.16;;;4.07;71.83
69911;BME280;63555;49.920;17.868;2022-12-29T20:13:41;98434.56;;;4.04;72.16
69911;BME280;63555;49.920;17.868;2022-12-29T20:18:42;98429.59;;;4.00;72.09
69911;BME280;63555;49.920;17.868;2022-12-29T20:23:43;98444.91;;;4.06;72.61
69911;BME280;63555;49.920;17.868;2022-12-29T20:28:44;98447.69;;;4.03;72.18
69911;BME280;63555;49.920;17.868;2022-12-29T20:33:45;98447.69;;;4.03;72.19
69911;BME280;63555;49.920;17.868;2022-12-29T20:38:46;98442.47;;;4.03;72.17
69911;BME280;63555;49.920;17.868;2022-12-29T20:43:48;98445.06;;;4.03;72.70
69911;BME280;63555;49.920;17.868;2022-12-29T20:48:49;98444.91;;;4.06;72.43
69911;BME280;63555;49.920;17.868;2022-12-29T20:53:49;98430.00;;;4.08;72.30
69911;BME280;63555;49.920;17.868;2022-12-29T20:58:50;98429.75;;;4.12;72.21
69911;BME280;63555;49.920;17.868;2022-12-29T21:03:51;98407.53;;;4.21;72.31
69911;BME280;63555;49.920;17.868;2022-12-29T21:08:52;98391.44;;;4.29;72.09
69911;BME280;63555;49.920;17.868;2022-12-29T21:13:54;98383.22;;;4.36;72.38
69911;BME280;63555;49.920;17.868;2022-12-29T21:18:54;98386.50;;;4.40;72.32
69911;BME280;63555;49.920;17.868;2022-12-29T21:23:55;98415.03;;;4.43;71.63
69911;BME280;63555;49.920;17.868;2022-12-29T21:29:04;98401.97;;;4.43;71.82
69911;BME280;63555;49.920;17.868;2022-12-29T21:34:05;98428.94;;;4.43;71.82
69911;BME280;63555;49.920;17.868;2022-12-29T21:39:05;98441.22;;;4.41;71.45
69911;BME280;63555;49.920;17.868;2022-12-29T21:44:06;98435.41;;;4.36;72.17
69911;BME280;63555;49.920;17.868;2022-12-29T21:49:26;98427.72;;;4.33;71.95
69911;BME280;63555;49.920;17.868;2022-12-29T21:54:29;98426.38;;;4.26;72.25
69911;BME280;63555;49.920;17.868;2022-12-29T21:59:48;98399.53;;;4.24;72.21
69911;BME280;63555;49.920;17.868;2022-12-29T22:05:09;98374.00;;;4.29;72.36
69911;BME280;63555;49.920;17.868;2022-12-29T22:10:28;98337.25;;;4.34;72.53
69911;BME280;63555;49.920;17.868;2022-12-29T22:15:47;98361.97;;;4.42;72.36
69911;BME280;63555;49.920;17.868;2022-12-29T22:20:47;98372.34;;;4.44;72.10
69911;BME280;63555;49.920;17.868;2022-12-29T22:25:47;98381.94;;;4.43;72.04
69911;BME280;63555;49.920;17.868;2022-12-29T22:30:49;98399.44;;;4.41;72.21
69911;BME280;63555;49.920;17.868;2022-12-29T22:35:49;98395.06;;;4.42;72.42
69911;BME280;63555;49.920;17.868;2022-12-29T22:40:49;98386.81;;;4.50;72.15
69911;BME280;63555;49.920;17.868;2022-12-29T22:45:50;98389.16;;;4.54;72.29
69911;BME280;63555;49.920;17.868;2022-12-29T22:50:53;98386.00;;;4.63;71.88
69911;BME280;63555;49.920;17.868;2022-12-29T22:56:05;98389.03;;;4.71;71.55
69911;BME280;63555;49.920;17.868;2022-12-29T23:01:06;98386.81;;;4.79;71.49
69911;BME280;63555;49.920;17.868;2022-12-29T23:06:10;98400.66;;;4.96;70.90
69911;BME280;63555;49.920;17.868;2022-12-29T23:11:12;98379.38;;;5.02;70.69
69911;BME280;63555;49.920;17.868;2022-12-29T23:16:13;98381.25;;;5.00;70.41
69911;BME280;63555;49.920;17.868;2022-12-29T23:21:16;98426.03;;;4.94;70.77
69911;BME280;63555;49.920;17.868;2022-12-29T23:26:20;98437.00;;;4.85;70.84
69911;BME280;63555;49.920;17.868;2022-12-29T23:31:22;98442.00;;;4.73;71.06
69911;BME280;63555;49.920;17.868;2022-12-29T23:36:23;98437.22;;;4.66;71.26
69911;BME280;63555;49.920;17.868;2022-12-29T23:41:24;98450.63;;;4.60;71.41
69911;BME280;63555;49.920;17.868;2022-12-29T23:46:26;98437.66;;;4.58;71.46
69911;BME280;63555;49.920;17.868;2022-12-29T23:51:27;98453.25;;;4.60;71.23
69911;BME280;63555;49.920;17.868;2022-12-29T23:56:28;98445.22;;;4.63;71.41
